sensor_id;sensor_type;location;lat;lon;timestamp;P1;durP1;ratioP1;P2;durP2;ratioP2
41532;SDS011;27262;-35.248;149.138;2023-04-25T00:00:40;6.78;;;1.65;;
41532;SDS011;27262;-35.248;149.138;2023-04-25T00:03:11;5.03;;;1.83;;
41532;SDS011;27262;-35.248;149.138;2023-04-25T00:05:42;4.20;;;1.80;;
41532;SDS011;27262;-35.248;149.138;2023-04-25T00:08:13;9.77;;;2.00;;
41532;SDS011;27262;-35.248;149.138;2023-04-25T00:10:46;6.30;;;1.80;;
41532;SDS011;27262;-35.248;149.138;2023-04-25T00:13:17;6.82;;;1.98;;
41532;SDS011;27262;-35.248;149.138;2023-04-25T00:15:47;2.70;;;1.60;;
41532;SDS011;27262;-35.248;149.138;2023-04-25T00:18:19;3.40;;;1.50;;
41532;SDS011;27262;-35.248;149.138;2023-04-25T00:20:49;4.43;;;1.75;;
41532;SDS011;27262;-35.248;149.138;2023-04-25T00:23:19;4.70;;;1.92;;
41532;SDS011;27262;-35.248;149.138;2023-04-25T00:25:50;5.30;;;2.60;;
41532;SDS011;27262;-35.248;149.138;2023-04-25T00:28:21;3.85;;;2.08;;
41532;SDS011;27262;-35.248;149.138;2023-04-25T00:30:51;4.32;;;1.90;;
41532;SDS011;27262;-35.248;149.138;2023-04-25T00:33:21;3.55;;;2.05;;
41532;SDS011;27262;-35.248;149.138;2023-04-25T00:35:51;15.23;;;2.00;;
41532;SDS011;27262;-35.248;149.138;2023-04-25T00:38:24;3.78;;;1.73;;
41532;SDS011;27262;-35.248;149.138;2023-04-25T00:41:01;6.00;;;1.58;;
41532;SDS011;27262;-35.248;149.138;2023-04-25T00:43:31;7.00;;;2.03;;
41532;SDS011;27262;-35.248;149.138;2023-04-25T00:46:02;4.43;;;2.00;;
41532;SDS011;27262;-35.248;149.138;2023-04-25T00:48:33;7.18;;;2.45;;
41532;SDS011;27262;-35.248;149.138;2023-04-25T00:51:03;8.05;;;2.88;;
41532;SDS011;27262;-35.248;149.138;2023-04-25T00:53:33;6.05;;;3.10;;
41532;SDS011;27262;-35.248;149.138;2023-04-25T00:56:04;4.43;;;1.98;;
41532;SDS011;27262;-35.248;149.138;2023-04-25T00:58:34;9.25;;;3.40;;
41532;SDS011;27262;-35.248;149.138;2023-04-25T01:01:05;3.55;;;2.42;;
41532;SDS011;27262;-35.248;149.138;2023-04-25T01:03:38;7.80;;;2.53;;
41532;SDS011;27262;-35.248;149.138;2023-04-25T01:06:10;3.97;;;1.85;;
41532;SDS011;27262;-35.248;149.138;2023-04-25T01:08:41;4.50;;;1.50;;
41532;SDS011;27262;-35.248;149.138;2023-04-25T01:11:11;3.60;;;1.92;;
41532;SDS011;27262;-35.248;149.138;2023-04-25T01:13:42;5.35;;;1.63;;
41532;SDS011;27262;-35.248;149.138;2023-04-25T01:16:12;8.80;;;2.88;;
41532;SDS011;27262;-35.248;149.138;2023-04-25T01:18:42;11.13;;;2.60;;
41532;SDS011;27262;-35.248;149.138;2023-04-25T01:21:14;6.70;;;2.40;;
41532;SDS011;27262;-35.248;149.138;2023-04-25T01:23:45;8.85;;;2.20;;
41532;SDS011;27262;-35.248;149.138;2023-04-25T01:26:15;3.97;;;1.83;;
41532;SDS011;27262;-35.248;149.138;2023-04-25T01:28:46;7.35;;;2.00;;
41532;SDS011;27262;-35.248;149.138;2023-04-25T01:31:17;7.20;;;1.60;;
41532;SDS011;27262;-35.248;149.138;2023-04-25T01:33:48;3.47;;;1.55;;
41532;SDS011;27262;-35.248;149.138;2023-04-25T01:36:19;3.03;;;1.42;;
41532;SDS011;27262;-35.248;149.138;2023-04-25T01:38:51;3.10;;;1.20;;
41532;SDS011;27262;-35.248;149.138;2023-04-25T01:41:21;4.78;;;1.70;;
41532;SDS011;27262;-35.248;149.138;2023-04-25T01:43:51;6.22;;;1.73;;
41532;SDS011;27262;-35.248;149.138;2023-04-25T01:46:22;4.32;;;1.45;;
41532;SDS011;27262;-35.248;149.138;2023-04-25T01:48:53;4.55;;;1.63;;
41532;SDS011;27262;-35.248;149.138;2023-04-25T01:51:23;5.30;;;1.50;;
41532;SDS011;27262;-35.248;149.138;2023-04-25T01:53:53;6.22;;;1.75;;
41532;SDS011;27262;-35.248;149.138;2023-04-25T01:56:29;4.30;;;1.42;;
41532;SDS011;27262;-35.248;149.138;2023-04-25T01:59:00;3.70;;;1.25;;
41532;SDS011;27262;-35.248;149.138;2023-04-25T02:01:32;4.35;;;0.98;;
41532;SDS011;27262;-35.248;149.138;2023-04-25T02:04:02;1.88;;;0.95;;
41532;SDS011;27262;-35.248;149.138;2023-04-25T02:06:33;2.58;;;1.02;;
41532;SDS011;27262;-35.248;149.138;2023-04-25T02:09:04;4.15;;;0.95;;
41532;SDS011;27262;-35.248;149.138;2023-04-25T02:11:34;3.50;;;1.10;;
41532;SDS011;27262;-35.248;149.138;2023-04-25T02:14:04;2.85;;;1.20;;
41532;SDS011;27262;-35.248;149.138;2023-04-25T02:16:34;3.75;;;1.38;;
41532;SDS011;27262;-35.248;149.138;2023-04-25T02:19:05;2.88;;;0.80;;
41532;SDS011;27262;-35.248;149.138;2023-04-25T02:21:36;6.82;;;1.15;;
41532;SDS011;27262;-35.248;149.138;2023-04-25T02:24:07;1.30;;;0.85;;
41532;SDS011;27262;-35.248;149.138;2023-04-25T02:26:38;3.83;;;1.20;;
41532;SDS011;27262;-35.248;149.138;2023-04-25T02:29:08;1.83;;;1.05;;
41532;SDS011;27262;-35.248;149.138;2023-04-25T02:31:39;5.20;;;1.10;;
41532;SDS011;27262;-35.248;149.138;2023-04-25T02:34:09;3.42;;;1.23;;
41532;SDS011;27262;-35.248;149.138;2023-04-25T02:36:40;2.00;;;1.27;;
41532;SDS011;27262;-35.248;149.138;2023-04-25T02:39:10;3.63;;;1.35;;
41532;SDS011;27262;-35.248;149.138;2023-04-25T02:41:40;3.08;;;1.05;;
41532;SDS011;27262;-35.248;149.138;2023-04-25T02:44:10;5.10;;;1.05;;
41532;SDS011;27262;-35.248;149.138;2023-04-25T02:46:42;3.45;;;1.40;;
41532;SDS011;27262;-35.248;149.138;2023-04-25T02:49:12;3.50;;;1.25;;
41532;SDS011;27262;-35.248;149.138;2023-04-25T02:51:43;3.42;;;1.00;;
41532;SDS011;27262;-35.248;149.138;2023-04-25T02:54:13;2.25;;;1.02;;
41532;SDS011;27262;-35.248;149.138;2023-04-25T02:56:44;3.17;;;1.00;;
41532;SDS011;27262;-35.248;149.138;2023-04-25T02:59:14;1.58;;;0.95;;
41532;SDS011;27262;-35.248;149.138;2023-04-25T03:01:44;3.35;;;1.20;;
41532;SDS011;27262;-35.248;149.138;2023-04-25T03:04:15;3.10;;;1.42;;
41532;SDS011;27262;-35.248;149.138;2023-04-25T03:06:47;3.08;;;1.20;;
41532;SDS011;27262;-35.248;149.138;2023-04-25T03:09:18;2.75;;;1.15;;
41532;SDS011;27262;-35.248;149.138;2023-04-25T03:11:48;2.88;;;0.88;;
41532;SDS011;27262;-35.248;149.138;2023-04-25T03:14:19;4.75;;;1.58;;
41532;SDS011;27262;-35.248;149.138;2023-04-25T03:16:49;3.42;;;1.15;;
41532;SDS011;27262;-35.248;149.138;2023-04-25T03:19:19;6.18;;;1.33;;
41532;SDS011;27262;-35.248;149.138;2023-04-25T03:21:49;2.78;;;1.13;;
41532;SDS011;27262;-35.248;149.138;2023-04-25T03:24:20;4.15;;;1.52;;
41532;SDS011;27262;-35.248;149.138;2023-04-25T03:26:50;5.72;;;1.38;;
41532;SDS011;27262;-35.248;149.138;2023-04-25T03:29:21;4.35;;;1.23;;
41532;SDS011;27262;-35.248;149.138;2023-04-25T03:31:54;3.25;;;1.40;;
41532;SDS011;27262;-35.248;149.138;2023-04-25T03:34:24;3.42;;;1.17;;
41532;SDS011;27262;-35.248;149.138;2023-04-25T03:36:55;2.50;;;1.30;;
41532;SDS011;27262;-35.248;149.138;2023-04-25T03:39:25;3.28;;;1.05;;
41532;SDS011;27262;-35.248;149.138;2023-04-25T03:41:55;2.80;;;1.10;;
41532;SDS011;27262;-35.248;149.138;2023-04-25T03:44:25;3.25;;;0.90;;
41532;SDS011;27262;-35.248;149.138;2023-04-25T03:46:56;4.10;;;1.23;;
41532;SDS011;27262;-35.248;149.138;2023-04-25T03:49:26;1.48;;;1.02;;
41532;SDS011;27262;-35.248;149.138;2023-04-25T03:51:57;2.08;;;1.10;;
41532;SDS011;27262;-35.248;149.138;2023-04-25T03:54:27;2.50;;;1.10;;
41532;SDS011;27262;-35.248;149.138;2023-04-25T03:56:58;2.33;;;1.10;;
41532;SDS011;27262;-35.248;149.138;2023-04-25T03:59:29;2.67;;;1.10;;
41532;SDS011;27262;-35.248;149.138;2023-04-25T04:01:59;2.50;;;1.15;;
41532;SDS011;27262;-35.248;149.138;2023-04-25T04:04:29;3.08;;;1.83;;
41532;SDS011;27262;-35.248;149.138;2023-04-25T04:07:00;4.20;;;1.48;;
41532;SDS011;27262;-35.248;149.138;2023-04-25T04:09:31;3.35;;;1.15;;
41532;SDS011;27262;-35.248;149.138;2023-04-25T04:12:01;1.65;;;1.10;;
41532;SDS011;27262;-35.248;149.138;2023-04-25T04:14:31;1.80;;;1.40;;
41532;SDS011;27262;-35.248;149.138;2023-04-25T04:17:01;2.55;;;0.98;;
41532;SDS011;27262;-35.248;149.138;2023-04-25T04:19:32;1.60;;;1.10;;
41532;SDS011;27262;-35.248;149.138;2023-04-25T04:22:02;1.70;;;1.27;;
41532;SDS011;27262;-35.248;149.138;2023-04-25T04:24:32;3.05;;;1.10;;
41532;SDS011;27262;-35.248;149.138;2023-04-25T04:27:02;2.53;;;1.10;;
41532;SDS011;27262;-35.248;149.138;2023-04-25T04:29:34;1.58;;;1.05;;
41532;SDS011;27262;-35.248;149.138;2023-04-25T04:32:05;3.03;;;1.17;;
41532;SDS011;27262;-35.248;149.138;2023-04-25T04:34:37;2.03;;;1.23;;
41532;SDS011;27262;-35.248;149.138;2023-04-25T04:37:08;3.60;;;1.05;;
41532;SDS011;27262;-35.248;149.138;2023-04-25T04:39:38;2.42;;;1.10;;
41532;SDS011;27262;-35.248;149.138;2023-04-25T04:42:09;2.92;;;1.10;;
41532;SDS011;27262;-35.248;149.138;2023-04-25T04:44:40;2.97;;;1.05;;
41532;SDS011;27262;-35.248;149.138;2023-04-25T04:47:13;2.80;;;0.93;;
41532;SDS011;27262;-35.248;149.138;2023-04-25T04:49:43;2.92;;;0.93;;
41532;SDS011;27262;-35.248;149.138;2023-04-25T04:52:14;3.08;;;0.80;;
41532;SDS011;27262;-35.248;149.138;2023-04-25T04:54:44;2.08;;;1.17;;
41532;SDS011;27262;-35.248;149.138;2023-04-25T04:57:14;2.83;;;1.20;;
41532;SDS011;27262;-35.248;149.138;2023-04-25T04:59:45;2.80;;;1.10;;
41532;SDS011;27262;-35.248;149.138;2023-04-25T05:02:15;3.60;;;0.88;;
41532;SDS011;27262;-35.248;149.138;2023-04-25T05:04:46;2.15;;;0.90;;
41532;SDS011;27262;-35.248;149.138;2023-04-25T05:07:17;4.20;;;1.40;;
41532;SDS011;27262;-35.248;149.138;2023-04-25T05:09:48;5.45;;;1.00;;
41532;SDS011;27262;-35.248;149.138;2023-04-25T05:12:18;3.53;;;0.93;;
41532;SDS011;27262;-35.248;149.138;2023-04-25T05:14:48;2.17;;;0.90;;
41532;SDS011;27262;-35.248;149.138;2023-04-25T05:17:19;5.18;;;0.98;;
41532;SDS011;27262;-35.248;149.138;2023-04-25T05:19:49;2.22;;;0.80;;
41532;SDS011;27262;-35.248;149.138;2023-04-25T05:22:20;2.97;;;0.93;;
41532;SDS011;27262;-35.248;149.138;2023-04-25T05:24:50;2.03;;;1.13;;
41532;SDS011;27262;-35.248;149.138;2023-04-25T05:27:22;3.25;;;1.23;;
41532;SDS011;27262;-35.248;149.138;2023-04-25T05:29:53;2.70;;;0.95;;
41532;SDS011;27262;-35.248;149.138;2023-04-25T05:32:23;2.10;;;0.98;;
41532;SDS011;27262;-35.248;149.138;2023-04-25T05:34:53;3.67;;;1.10;;
41532;SDS011;27262;-35.248;149.138;2023-04-25T05:37:24;4.03;;;1.10;;
41532;SDS011;27262;-35.248;149.138;2023-04-25T05:39:54;2.78;;;1.20;;
41532;SDS011;27262;-35.248;149.138;2023-04-25T05:42:25;1.75;;;0.90;;
41532;SDS011;27262;-35.248;149.138;2023-04-25T05:44:55;4.55;;;1.33;;
41532;SDS011;27262;-35.248;149.138;2023-04-25T05:47:25;2.92;;;1.23;;
41532;SDS011;27262;-35.248;149.138;2023-04-25T05:49:56;1.85;;;0.90;;
41532;SDS011;27262;-35.248;149.138;2023-04-25T05:52:26;2.38;;;0.98;;
41532;SDS011;27262;-35.248;149.138;2023-04-25T05:54:56;3.85;;;1.17;;
41532;SDS011;27262;-35.248;149.138;2023-04-25T05:57:27;2.35;;;1.00;;
41532;SDS011;27262;-35.248;149.138;2023-04-25T05:59:57;1.85;;;0.80;;
41532;SDS011;27262;-35.248;149.138;2023-04-25T06:02:27;2.33;;;1.10;;
41532;SDS011;27262;-35.248;149.138;2023-04-25T06:07:57;4.25;;;1.50;;
41532;SDS011;27262;-35.248;149.138;2023-04-25T06:10:30;1.75;;;0.90;;
41532;SDS011;27262;-35.248;149.138;2023-04-25T06:13:05;2.38;;;1.00;;
41532;SDS011;27262;-35.248;149.138;2023-04-25T06:15:36;3.33;;;1.30;;
41532;SDS011;27262;-35.248;149.138;2023-04-25T06:18:07;1.50;;;1.02;;
41532;SDS011;27262;-35.248;149.138;2023-04-25T06:20:38;1.10;;;0.75;;
41532;SDS011;27262;-35.248;149.138;2023-04-25T06:23:11;3.72;;;1.13;;
41532;SDS011;27262;-35.248;149.138;2023-04-25T06:25:42;2.47;;;0.95;;
41532;SDS011;27262;-35.248;149.138;2023-04-25T06:28:13;2.50;;;0.90;;
41532;SDS011;27262;-35.248;149.138;2023-04-25T06:30:44;4.82;;;1.00;;
41532;SDS011;27262;-35.248;149.138;2023-04-25T06:33:16;3.67;;;1.02;;
41532;SDS011;27262;-35.248;149.138;2023-04-25T06:35:47;2.75;;;0.80;;
41532;SDS011;27262;-35.248;149.138;2023-04-25T06:38:27;2.03;;;1.15;;
41532;SDS011;27262;-35.248;149.138;2023-04-25T06:41:00;2.20;;;0.93;;
41532;SDS011;27262;-35.248;149.138;2023-04-25T06:43:32;3.45;;;0.93;;
41532;SDS011;27262;-35.248;149.138;2023-04-25T06:46:07;3.78;;;1.02;;
41532;SDS011;27262;-35.248;149.138;2023-04-25T06:48:43;2.50;;;1.25;;
41532;SDS011;27262;-35.248;149.138;2023-04-25T06:51:16;2.10;;;0.85;;
41532;SDS011;27262;-35.248;149.138;2023-04-25T06:53:50;1.48;;;1.13;;
41532;SDS011;27262;-35.248;149.138;2023-04-25T06:56:21;2.22;;;0.88;;
41532;SDS011;27262;-35.248;149.138;2023-04-25T06:58:54;2.10;;;0.98;;
41532;SDS011;27262;-35.248;149.138;2023-04-25T07:01:25;2.42;;;0.93;;
41532;SDS011;27262;-35.248;149.138;2023-04-25T07:03:57;3.35;;;1.30;;
41532;SDS011;27262;-35.248;149.138;2023-04-25T07:06:29;3.33;;;1.25;;
41532;SDS011;27262;-35.248;149.138;2023-04-25T07:09:02;1.88;;;0.70;;
41532;SDS011;27262;-35.248;149.138;2023-04-25T07:11:34;3.45;;;1.17;;
41532;SDS011;27262;-35.248;149.138;2023-04-25T07:14:06;3.28;;;1.00;;
41532;SDS011;27262;-35.248;149.138;2023-04-25T07:16:40;2.72;;;1.15;;
41532;SDS011;27262;-35.248;149.138;2023-04-25T07:19:11;2.50;;;0.98;;
41532;SDS011;27262;-35.248;149.138;2023-04-25T07:21:43;1.17;;;0.90;;
41532;SDS011;27262;-35.248;149.138;2023-04-25T07:24:20;3.85;;;1.35;;
41532;SDS011;27262;-35.248;149.138;2023-04-25T07:26:51;1.73;;;0.82;;
41532;SDS011;27262;-35.248;149.138;2023-04-25T07:29:25;9.88;;;1.10;;
41532;SDS011;27262;-35.248;149.138;2023-04-25T07:31:59;6.25;;;1.65;;
41532;SDS011;27262;-35.248;149.138;2023-04-25T07:34:32;4.30;;;1.10;;
41532;SDS011;27262;-35.248;149.138;2023-04-25T07:37:07;5.38;;;1.40;;
41532;SDS011;27262;-35.248;149.138;2023-04-25T07:39:40;6.53;;;1.35;;
41532;SDS011;27262;-35.248;149.138;2023-04-25T07:42:11;2.90;;;1.20;;
41532;SDS011;27262;-35.248;149.138;2023-04-25T07:44:43;3.45;;;1.00;;
41532;SDS011;27262;-35.248;149.138;2023-04-25T07:47:14;3.22;;;0.90;;
41532;SDS011;27262;-35.248;149.138;2023-04-25T07:49:48;3.75;;;1.60;;
41532;SDS011;27262;-35.248;149.138;2023-04-25T07:52:19;4.18;;;1.27;;
41532;SDS011;27262;-35.248;149.138;2023-04-25T07:54:53;3.97;;;1.20;;
41532;SDS011;27262;-35.248;149.138;2023-04-25T07:57:25;4.70;;;1.05;;
41532;SDS011;27262;-35.248;149.138;2023-04-25T07:59:58;2.67;;;0.90;;
41532;SDS011;27262;-35.248;149.138;2023-04-25T08:02:30;1.50;;;1.30;;
41532;SDS011;27262;-35.248;149.138;2023-04-25T08:05:02;1.45;;;1.02;;
41532;SDS011;27262;-35.248;149.138;2023-04-25T08:07:34;2.20;;;1.20;;
41532;SDS011;27262;-35.248;149.138;2023-04-25T08:10:05;2.88;;;1.17;;
41532;SDS011;27262;-35.248;149.138;2023-04-25T08:12:37;1.85;;;1.00;;
41532;SDS011;27262;-35.248;149.138;2023-04-25T08:15:09;2.17;;;1.20;;
41532;SDS011;27262;-35.248;149.138;2023-04-25T08:17:40;3.60;;;1.15;;
41532;SDS011;27262;-35.248;149.138;2023-04-25T08:20:14;3.28;;;0.90;;
41532;SDS011;27262;-35.248;149.138;2023-04-25T08:22:44;4.43;;;1.23;;
41532;SDS011;27262;-35.248;149.138;2023-04-25T08:25:18;2.90;;;1.20;;
41532;SDS011;27262;-35.248;149.138;2023-04-25T08:27:50;4.25;;;1.33;;
41532;SDS011;27262;-35.248;149.138;2023-04-25T08:30:21;2.58;;;1.20;;
41532;SDS011;27262;-35.248;149.138;2023-04-25T08:32:56;1.95;;;1.08;;
41532;SDS011;27262;-35.248;149.138;2023-04-25T08:35:28;3.35;;;1.20;;
41532;SDS011;27262;-35.248;149.138;2023-04-25T08:38:02;2.10;;;1.13;;
41532;SDS011;27262;-35.248;149.138;2023-04-25T08:40:35;2.28;;;1.20;;
41532;SDS011;27262;-35.248;149.138;2023-04-25T08:43:08;3.00;;;1.38;;
41532;SDS011;27262;-35.248;149.138;2023-04-25T08:45:43;2.33;;;1.13;;
41532;SDS011;27262;-35.248;149.138;2023-04-25T08:48:15;1.33;;;1.10;;
41532;SDS011;27262;-35.248;149.138;2023-04-25T08:50:53;2.65;;;1.10;;
41532;SDS011;27262;-35.248;149.138;2023-04-25T08:53:26;2.28;;;1.20;;
41532;SDS011;27262;-35.248;149.138;2023-04-25T08:56:02;3.25;;;1.10;;
41532;SDS011;27262;-35.248;149.138;2023-04-25T08:58:35;2.25;;;1.15;;
41532;SDS011;27262;-35.248;149.138;2023-04-25T09:01:07;1.92;;;1.17;;
41532;SDS011;27262;-35.248;149.138;2023-04-25T09:03:41;4.65;;;1.10;;
41532;SDS011;27262;-35.248;149.138;2023-04-25T09:06:16;2.78;;;1.00;;
41532;SDS011;27262;-35.248;149.138;2023-04-25T09:08:51;2.22;;;0.93;;
41532;SDS011;27262;-35.248;149.138;2023-04-25T09:11:24;2.38;;;1.27;;
41532;SDS011;27262;-35.248;149.138;2023-04-25T09:14:16;1.50;;;1.10;;
41532;SDS011;27262;-35.248;149.138;2023-04-25T09:19:32;2.83;;;1.55;;
41532;SDS011;27262;-35.248;149.138;2023-04-25T09:22:08;2.45;;;1.38;;
41532;SDS011;27262;-35.248;149.138;2023-04-25T09:24:42;3.42;;;1.35;;
41532;SDS011;27262;-35.248;149.138;2023-04-25T09:27:22;2.17;;;1.70;;
41532;SDS011;27262;-35.248;149.138;2023-04-25T09:29:58;2.05;;;1.00;;
41532;SDS011;27262;-35.248;149.138;2023-04-25T09:32:30;2.70;;;1.23;;
41532;SDS011;27262;-35.248;149.138;2023-04-25T09:35:02;1.40;;;1.23;;
41532;SDS011;27262;-35.248;149.138;2023-04-25T09:37:34;2.35;;;1.20;;
41532;SDS011;27262;-35.248;149.138;2023-04-25T09:40:07;2.97;;;1.30;;
41532;SDS011;27262;-35.248;149.138;2023-04-25T09:42:41;2.20;;;0.98;;
41532;SDS011;27262;-35.248;149.138;2023-04-25T09:45:14;3.22;;;1.25;;
41532;SDS011;27262;-35.248;149.138;2023-04-25T09:47:47;1.85;;;1.10;;
41532;SDS011;27262;-35.248;149.138;2023-04-25T09:50:20;2.75;;;1.27;;
41532;SDS011;27262;-35.248;149.138;2023-04-25T09:53:03;2.63;;;1.10;;
41532;SDS011;27262;-35.248;149.138;2023-04-25T09:55:36;4.75;;;1.63;;
41532;SDS011;27262;-35.248;149.138;2023-04-25T09:58:09;2.22;;;1.50;;
41532;SDS011;27262;-35.248;149.138;2023-04-25T10:00:42;1.50;;;1.10;;
41532;SDS011;27262;-35.248;149.138;2023-04-25T10:03:13;1.25;;;1.15;;
41532;SDS011;27262;-35.248;149.138;2023-04-25T10:05:48;2.80;;;1.63;;
41532;SDS011;27262;-35.248;149.138;2023-04-25T10:08:22;1.92;;;1.25;;
41532;SDS011;27262;-35.248;149.138;2023-04-25T10:11:06;1.85;;;1.30;;
41532;SDS011;27262;-35.248;149.138;2023-04-25T10:13:40;3.13;;;1.52;;
41532;SDS011;27262;-35.248;149.138;2023-04-25T10:16:11;4.00;;;1.50;;
41532;SDS011;27262;-35.248;149.138;2023-04-25T10:18:45;2.10;;;1.27;;
41532;SDS011;27262;-35.248;149.138;2023-04-25T10:21:15;2.63;;;1.48;;
41532;SDS011;27262;-35.248;149.138;2023-04-25T10:23:48;1.10;;;1.00;;
41532;SDS011;27262;-35.248;149.138;2023-04-25T10:26:21;1.92;;;1.25;;
41532;SDS011;27262;-35.248;149.138;2023-04-25T10:28:56;2.80;;;1.23;;
41532;SDS011;27262;-35.248;149.138;2023-04-25T10:31:29;2.17;;;1.40;;
41532;SDS011;27262;-35.248;149.138;2023-04-25T10:34:01;1.65;;;1.20;;
41532;SDS011;27262;-35.248;149.138;2023-04-25T10:36:32;1.77;;;1.40;;
41532;SDS011;27262;-35.248;149.138;2023-04-25T10:39:08;2.15;;;1.30;;
41532;SDS011;27262;-35.248;149.138;2023-04-25T10:41:46;3.67;;;1.40;;
41532;SDS011;27262;-35.248;149.138;2023-04-25T10:44:29;2.17;;;1.50;;
41532;SDS011;27262;-35.248;149.138;2023-04-25T10:47:01;1.63;;;1.20;;
41532;SDS011;27262;-35.248;149.138;2023-04-25T10:49:35;1.52;;;0.98;;
41532;SDS011;27262;-35.248;149.138;2023-04-25T10:54:55;1.70;;;1.02;;
41532;SDS011;27262;-35.248;149.138;2023-04-25T10:57:31;1.80;;;1.23;;
41532;SDS011;27262;-35.248;149.138;2023-04-25T11:00:16;2.17;;;1.13;;
41532;SDS011;27262;-35.248;149.138;2023-04-25T11:02:52;2.00;;;1.30;;
41532;SDS011;27262;-35.248;149.138;2023-04-25T11:05:33;1.75;;;1.13;;
41532;SDS011;27262;-35.248;149.138;2023-04-25T11:08:37;2.40;;;1.55;;
41532;SDS011;27262;-35.248;149.138;2023-04-25T11:11:20;2.70;;;1.23;;
41532;SDS011;27262;-35.248;149.138;2023-04-25T11:13:50;1.73;;;1.30;;
41532;SDS011;27262;-35.248;149.138;2023-04-25T11:16:23;1.88;;;1.20;;
41532;SDS011;27262;-35.248;149.138;2023-04-25T11:18:56;1.30;;;1.20;;
41532;SDS011;27262;-35.248;149.138;2023-04-25T11:21:28;1.63;;;1.10;;
41532;SDS011;27262;-35.248;149.138;2023-04-25T11:24:02;1.20;;;1.10;;
41532;SDS011;27262;-35.248;149.138;2023-04-25T11:26:34;1.52;;;1.10;;
41532;SDS011;27262;-35.248;149.138;2023-04-25T11:29:06;1.80;;;1.38;;
41532;SDS011;27262;-35.248;149.138;2023-04-25T11:31:42;1.85;;;1.13;;
41532;SDS011;27262;-35.248;149.138;2023-04-25T11:34:17;2.58;;;1.50;;
41532;SDS011;27262;-35.248;149.138;2023-04-25T11:36:48;2.45;;;1.10;;
41532;SDS011;27262;-35.248;149.138;2023-04-25T11:39:19;1.83;;;1.40;;
41532;SDS011;27262;-35.248;149.138;2023-04-25T11:41:49;1.50;;;1.10;;
41532;SDS011;27262;-35.248;149.138;2023-04-25T11:44:20;1.48;;;1.20;;
41532;SDS011;27262;-35.248;149.138;2023-04-25T11:46:51;2.35;;;1.30;;
41532;SDS011;27262;-35.248;149.138;2023-04-25T11:49:22;2.20;;;1.23;;
41532;SDS011;27262;-35.248;149.138;2023-04-25T11:51:55;1.52;;;1.20;;
41532;SDS011;27262;-35.248;149.138;2023-04-25T11:54:25;2.33;;;1.10;;
41532;SDS011;27262;-35.248;149.138;2023-04-25T11:56:55;2.13;;;1.55;;
41532;SDS011;27262;-35.248;149.138;2023-04-25T11:59:26;1.92;;;1.50;;
41532;SDS011;27262;-35.248;149.138;2023-04-25T12:01:57;1.20;;;1.10;;
41532;SDS011;27262;-35.248;149.138;2023-04-25T12:04:30;2.05;;;1.30;;
41532;SDS011;27262;-35.248;149.138;2023-04-25T12:07:01;2.38;;;1.30;;
41532;SDS011;27262;-35.248;149.138;2023-04-25T12:09:32;1.23;;;1.10;;
41532;SDS011;27262;-35.248;149.138;2023-04-25T12:12:03;1.80;;;1.20;;
41532;SDS011;27262;-35.248;149.138;2023-04-25T12:14:35;1.95;;;1.20;;
41532;SDS011;27262;-35.248;149.138;2023-04-25T12:17:05;1.63;;;1.30;;
41532;SDS011;27262;-35.248;149.138;2023-04-25T12:19:38;2.08;;;1.45;;
41532;SDS011;27262;-35.248;149.138;2023-04-25T12:22:22;2.72;;;1.40;;
41532;SDS011;27262;-35.248;149.138;2023-04-25T12:24:53;2.35;;;1.13;;
41532;SDS011;27262;-35.248;149.138;2023-04-25T12:27:26;2.17;;;1.52;;
41532;SDS011;27262;-35.248;149.138;2023-04-25T12:29:58;1.35;;;1.23;;
41532;SDS011;27262;-35.248;149.138;2023-04-25T12:32:29;2.40;;;1.50;;
41532;SDS011;27262;-35.248;149.138;2023-04-25T12:35:00;3.53;;;1.52;;
41532;SDS011;27262;-35.248;149.138;2023-04-25T12:37:30;3.05;;;1.25;;
41532;SDS011;27262;-35.248;149.138;2023-04-25T12:40:00;3.03;;;1.90;;
41532;SDS011;27262;-35.248;149.138;2023-04-25T12:42:33;3.22;;;1.65;;
41532;SDS011;27262;-35.248;149.138;2023-04-25T12:45:03;2.40;;;1.65;;
41532;SDS011;27262;-35.248;149.138;2023-04-25T12:47:34;2.30;;;1.40;;
41532;SDS011;27262;-35.248;149.138;2023-04-25T12:50:04;2.30;;;1.50;;
41532;SDS011;27262;-35.248;149.138;2023-04-25T12:52:35;3.20;;;1.67;;
41532;SDS011;27262;-35.248;149.138;2023-04-25T12:55:06;3.20;;;1.67;;
41532;SDS011;27262;-35.248;149.138;2023-04-25T12:57:36;3.70;;;1.70;;
41532;SDS011;27262;-35.248;149.138;2023-04-25T13:00:07;1.65;;;1.30;;
41532;SDS011;27262;-35.248;149.138;2023-04-25T13:02:43;3.13;;;1.63;;
41532;SDS011;27262;-35.248;149.138;2023-04-25T13:05:15;2.17;;;1.70;;
41532;SDS011;27262;-35.248;149.138;2023-04-25T13:07:45;2.50;;;1.92;;
41532;SDS011;27262;-35.248;149.138;2023-04-25T13:10:15;2.25;;;1.80;;
41532;SDS011;27262;-35.248;149.138;2023-04-25T13:12:46;1.83;;;1.48;;
41532;SDS011;27262;-35.248;149.138;2023-04-25T13:15:16;2.88;;;1.50;;
41532;SDS011;27262;-35.248;149.138;2023-04-25T13:17:47;2.05;;;1.50;;
41532;SDS011;27262;-35.248;149.138;2023-04-25T13:20:17;3.15;;;1.52;;
41532;SDS011;27262;-35.248;149.138;2023-04-25T13:22:51;2.08;;;1.42;;
41532;SDS011;27262;-35.248;149.138;2023-04-25T13:25:21;2.55;;;1.63;;
41532;SDS011;27262;-35.248;149.138;2023-04-25T13:27:53;3.30;;;1.52;;
41532;SDS011;27262;-35.248;149.138;2023-04-25T13:30:23;2.35;;;1.60;;
41532;SDS011;27262;-35.248;149.138;2023-04-25T13:32:54;3.58;;;1.63;;
41532;SDS011;27262;-35.248;149.138;2023-04-25T13:35:25;4.75;;;1.67;;
41532;SDS011;27262;-35.248;149.138;2023-04-25T13:37:56;3.17;;;1.50;;
41532;SDS011;27262;-35.248;149.138;2023-04-25T13:40:26;5.03;;;1.77;;
41532;SDS011;27262;-35.248;149.138;2023-04-25T13:42:57;2.53;;;1.65;;
41532;SDS011;27262;-35.248;149.138;2023-04-25T13:45:28;3.05;;;1.30;;
41532;SDS011;27262;-35.248;149.138;2023-04-25T13:48:00;1.77;;;1.23;;
41532;SDS011;27262;-35.248;149.138;2023-04-25T13:50:31;1.45;;;1.20;;
41532;SDS011;27262;-35.248;149.138;2023-04-25T13:53:01;5.15;;;1.63;;
41532;SDS011;27262;-35.248;149.138;2023-04-25T13:55:32;2.25;;;1.30;;
41532;SDS011;27262;-35.248;149.138;2023-04-25T13:58:04;3.03;;;1.35;;
41532;SDS011;27262;-35.248;149.138;2023-04-25T14:00:38;1.75;;;1.20;;
41532;SDS011;27262;-35.248;149.138;2023-04-25T14:03:11;2.13;;;1.30;;
41532;SDS011;27262;-35.248;149.138;2023-04-25T14:05:42;2.55;;;1.10;;
41532;SDS011;27262;-35.248;149.138;2023-04-25T14:08:12;2.42;;;1.45;;
41532;SDS011;27262;-35.248;149.138;2023-04-25T14:10:50;1.38;;;1.23;;
41532;SDS011;27262;-35.248;149.138;2023-04-25T14:13:21;2.70;;;1.55;;
41532;SDS011;27262;-35.248;149.138;2023-04-25T14:15:54;1.52;;;0.85;;
41532;SDS011;27262;-35.248;149.138;2023-04-25T14:18:25;1.33;;;1.00;;
41532;SDS011;27262;-35.248;149.138;2023-04-25T14:20:56;1.55;;;1.25;;
41532;SDS011;27262;-35.248;149.138;2023-04-25T14:23:26;1.80;;;1.13;;
41532;SDS011;27262;-35.248;149.138;2023-04-25T14:25:57;1.38;;;1.02;;
41532;SDS011;27262;-35.248;149.138;2023-04-25T14:28:27;1.05;;;0.80;;
41532;SDS011;27262;-35.248;149.138;2023-04-25T14:30:57;1.35;;;1.00;;
41532;SDS011;27262;-35.248;149.138;2023-04-25T14:33:29;0.70;;;0.70;;
41532;SDS011;27262;-35.248;149.138;2023-04-25T14:35:59;1.98;;;1.02;;
41532;SDS011;27262;-35.248;149.138;2023-04-25T14:38:30;1.48;;;1.17;;
41532;SDS011;27262;-35.248;149.138;2023-04-25T14:41:00;2.78;;;1.10;;
41532;SDS011;27262;-35.248;149.138;2023-04-25T14:43:30;1.00;;;0.90;;